GAP2525 RPLL-RPMY
Flight info
| Callsign | GAP2525 |
|---|---|
| Flight time | 1h 6m |
| Altitude | 35000 |
| Route | IPATA2R IPATA W25 BATAY W8 MCT W6A SAGOL SAGOL6A |
| Aircraft | A320/M-SDE3FGHIRWY/LB1 |
Departure
| Time | 2026-05-05 13:09 |
|---|---|
| Airport | Ninoy Aquino International Airport (RPLL) |
Arrival
| Time | 2026-05-05 14:16 |
|---|---|
| Airport | Laguindingan International Airport (RPMY) |
| Time | Latitude | Longitude | Altitude | Speed | Heading |
|---|---|---|---|---|---|
| 2026-05-05 12:48 | 14.51120 | 121.01322 | 82 ft | 0 kts | 215° |
| 2026-05-05 12:55 | 14.51126 | 121.01326 | 82 ft | 2 kts | 215° |
| 2026-05-05 12:56 | 14.51138 | 121.01335 | 82 ft | 2 kts | 215° |
| 2026-05-05 12:56 | 14.51150 | 121.01344 | 82 ft | 1 kts | 215° |
| 2026-05-05 12:56 | 14.51159 | 121.01350 | 82 ft | 2 kts | 204° |
| 2026-05-05 12:56 | 14.51173 | 121.01354 | 82 ft | 2 kts | 183° |
| 2026-05-05 12:57 | 14.51188 | 121.01352 | 82 ft | 2 kts | 162° |
| 2026-05-05 12:57 | 14.51202 | 121.01345 | 82 ft | 2 kts | 142° |
| 2026-05-05 12:57 | 14.51207 | 121.01341 | 82 ft | 1 kts | 131° |
| 2026-05-05 12:57 | 14.51210 | 121.01337 | 82 ft | 0 kts | 134° |
| 2026-05-05 13:01 | 14.51194 | 121.01354 | 82 ft | 2 kts | 134° |
| 2026-05-05 13:01 | 14.51177 | 121.01371 | 81 ft | 4 kts | 136° |
| 2026-05-05 13:01 | 14.51155 | 121.01395 | 82 ft | 5 kts | 135° |
| 2026-05-05 13:01 | 14.51126 | 121.01424 | 82 ft | 6 kts | 135° |
| 2026-05-05 13:02 | 14.51093 | 121.01459 | 82 ft | 7 kts | 134° |
| 2026-05-05 13:02 | 14.51054 | 121.01500 | 82 ft | 8 kts | 134° |
| 2026-05-05 13:02 | 14.51009 | 121.01547 | 82 ft | 9 kts | 134° |
| 2026-05-05 13:02 | 14.50958 | 121.01599 | 81 ft | 10 kts | 135° |
| 2026-05-05 13:03 | 14.50912 | 121.01646 | 81 ft | 7 kts | 134° |
| 2026-05-05 13:03 | 14.50881 | 121.01669 | 81 ft | 4 kts | 173° |
| 2026-05-05 13:03 | 14.50852 | 121.01647 | 81 ft | 6 kts | 238° |
| 2026-05-05 13:03 | 14.50827 | 121.01605 | 81 ft | 7 kts | 241° |
| 2026-05-05 13:04 | 14.50798 | 121.01549 | 81 ft | 10 kts | 240° |
| 2026-05-05 13:04 | 14.50759 | 121.01480 | 81 ft | 12 kts | 238° |
| 2026-05-05 13:04 | 14.50712 | 121.01399 | 81 ft | 14 kts | 241° |
| 2026-05-05 13:04 | 14.50660 | 121.01303 | 81 ft | 16 kts | 240° |
| 2026-05-05 13:05 | 14.50602 | 121.01197 | 81 ft | 17 kts | 240° |
| 2026-05-05 13:05 | 14.50539 | 121.01083 | 81 ft | 18 kts | 240° |
| 2026-05-05 13:05 | 14.50473 | 121.00966 | 81 ft | 19 kts | 240° |
| 2026-05-05 13:05 | 14.50407 | 121.00846 | 81 ft | 19 kts | 240° |
| 2026-05-05 13:06 | 14.50340 | 121.00726 | 81 ft | 19 kts | 240° |
| 2026-05-05 13:06 | 14.50273 | 121.00607 | 81 ft | 19 kts | 240° |
| 2026-05-05 13:06 | 14.50206 | 121.00485 | 81 ft | 19 kts | 240° |
| 2026-05-05 13:06 | 14.50138 | 121.00361 | 81 ft | 19 kts | 240° |
| 2026-05-05 13:07 | 14.50069 | 121.00238 | 81 ft | 19 kts | 240° |
| 2026-05-05 13:08 | 14.49858 | 120.99974 | 82 ft | 8 kts | 149° |
| 2026-05-05 13:08 | 14.49804 | 121.00010 | 82 ft | 8 kts | 129° |
| 2026-05-05 13:08 | 14.49816 | 121.00071 | 82 ft | 9 kts | 59° |
| 2026-05-05 13:08 | 14.49860 | 121.00150 | 82 ft | 18 kts | 61° |
| 2026-05-05 13:09 | 14.50044 | 121.00482 | 82 ft | 88 kts | 60° |
| 2026-05-05 13:09 | 14.50459 | 121.01226 | 82 ft | 148 kts | 61° |
| 2026-05-05 13:09 | 14.50995 | 121.02209 | 515 ft | 159 kts | 60° |
| 2026-05-05 13:09 | 14.51553 | 121.03192 | 1140 ft | 162 kts | 63° |
| 2026-05-05 13:10 | 14.52106 | 121.04182 | 1808 ft | 159 kts | 62° |
| 2026-05-05 13:10 | 14.52653 | 121.05174 | 2151 ft | 165 kts | 63° |
| 2026-05-05 13:10 | 14.53237 | 121.06235 | 2403 ft | 178 kts | 63° |
| 2026-05-05 13:10 | 14.53880 | 121.07401 | 2663 ft | 193 kts | 63° |
| 2026-05-05 13:11 | 14.54575 | 121.08668 | 2850 ft | 213 kts | 63° |
| 2026-05-05 13:11 | 14.55302 | 121.10042 | 3146 ft | 229 kts | 69° |
| 2026-05-05 13:11 | 14.55540 | 121.11716 | 3448 ft | 245 kts | 99° |
| 2026-05-05 13:11 | 14.54848 | 121.13360 | 3827 ft | 261 kts | 127° |
| 2026-05-05 13:12 | 14.53604 | 121.14716 | 4460 ft | 266 kts | 134° |
| 2026-05-05 13:12 | 14.52252 | 121.16045 | 5141 ft | 269 kts | 135° |
| 2026-05-05 13:12 | 14.50889 | 121.17380 | 5839 ft | 273 kts | 133° |
| 2026-05-05 13:12 | 14.49512 | 121.18733 | 6565 ft | 276 kts | 135° |
| 2026-05-05 13:13 | 14.48134 | 121.20091 | 7298 ft | 278 kts | 135° |
| 2026-05-05 13:13 | 14.46738 | 121.21471 | 8068 ft | 280 kts | 135° |
| 2026-05-05 13:13 | 14.45334 | 121.22864 | 8810 ft | 283 kts | 134° |
| 2026-05-05 13:13 | 14.43914 | 121.24277 | 9515 ft | 286 kts | 134° |
| 2026-05-05 13:14 | 14.42481 | 121.25706 | 10201 ft | 289 kts | 134° |
| 2026-05-05 13:14 | 14.41026 | 121.27157 | 10850 ft | 293 kts | 134° |
| 2026-05-05 13:14 | 14.39553 | 121.28626 | 11481 ft | 296 kts | 134° |
| 2026-05-05 13:14 | 14.38073 | 121.30102 | 12092 ft | 300 kts | 134° |
| 2026-05-05 13:15 | 14.36547 | 121.31623 | 12517 ft | 310 kts | 134° |
| 2026-05-05 13:15 | 14.34972 | 121.33195 | 12754 ft | 325 kts | 135° |
| 2026-05-05 13:15 | 14.33300 | 121.34862 | 13000 ft | 339 kts | 135° |
| 2026-05-05 13:15 | 14.31561 | 121.36593 | 13242 ft | 353 kts | 135° |
| 2026-05-05 13:16 | 14.29777 | 121.38368 | 13454 ft | 365 kts | 135° |
| 2026-05-05 13:16 | 14.27925 | 121.40213 | 13674 ft | 377 kts | 135° |
| 2026-05-05 13:16 | 14.26005 | 121.42123 | 13954 ft | 385 kts | 135° |
| 2026-05-05 13:16 | 14.24070 | 121.44048 | 14404 ft | 387 kts | 135° |
| 2026-05-05 13:17 | 14.22117 | 121.45994 | 14869 ft | 389 kts | 135° |
| 2026-05-05 13:17 | 14.20187 | 121.47915 | 15267 ft | 392 kts | 135° |
| 2026-05-05 13:17 | 14.18201 | 121.49892 | 15675 ft | 394 kts | 135° |
| 2026-05-05 13:17 | 14.16224 | 121.51859 | 16059 ft | 397 kts | 135° |
| 2026-05-05 13:18 | 14.14223 | 121.53848 | 16440 ft | 399 kts | 135° |
| 2026-05-05 13:18 | 14.12241 | 121.55819 | 16828 ft | 401 kts | 135° |
| 2026-05-05 13:18 | 14.10213 | 121.57838 | 17183 ft | 403 kts | 135° |
| 2026-05-05 13:18 | 14.08207 | 121.59832 | 17526 ft | 405 kts | 135° |
| 2026-05-05 13:19 | 14.06175 | 121.61852 | 17849 ft | 408 kts | 135° |
| 2026-05-05 13:19 | 14.04116 | 121.63897 | 18198 ft | 410 kts | 135° |
| 2026-05-05 13:19 | 14.02051 | 121.65949 | 18532 ft | 412 kts | 135° |
| 2026-05-05 13:19 | 14.00001 | 121.67986 | 18858 ft | 413 kts | 135° |
| 2026-05-05 13:20 | 13.97934 | 121.70042 | 19161 ft | 415 kts | 135° |
| 2026-05-05 13:20 | 13.95850 | 121.72114 | 19441 ft | 418 kts | 135° |
| 2026-05-05 13:20 | 13.93745 | 121.74206 | 19743 ft | 420 kts | 135° |
| 2026-05-05 13:20 | 13.91649 | 121.76286 | 20058 ft | 421 kts | 135° |
| 2026-05-05 13:21 | 13.89520 | 121.78397 | 20340 ft | 423 kts | 135° |
| 2026-05-05 13:21 | 13.87360 | 121.80457 | 20624 ft | 425 kts | 138° |
| 2026-05-05 13:21 | 13.85078 | 121.82400 | 20892 ft | 428 kts | 141° |
| 2026-05-05 13:21 | 13.82684 | 121.84242 | 21151 ft | 430 kts | 143° |
| 2026-05-05 13:22 | 13.80276 | 121.86055 | 21410 ft | 432 kts | 143° |
| 2026-05-05 13:22 | 13.77842 | 121.87885 | 21682 ft | 433 kts | 143° |
| 2026-05-05 13:22 | 13.75402 | 121.89721 | 21943 ft | 435 kts | 143° |
| 2026-05-05 13:22 | 13.72955 | 121.91564 | 22217 ft | 436 kts | 143° |
| 2026-05-05 13:23 | 13.70505 | 121.93409 | 22469 ft | 437 kts | 143° |
| 2026-05-05 13:23 | 13.68045 | 121.95261 | 22707 ft | 439 kts | 143° |
| 2026-05-05 13:23 | 13.65573 | 121.97124 | 22947 ft | 441 kts | 143° |
| 2026-05-05 13:23 | 13.63091 | 121.98993 | 23186 ft | 442 kts | 143° |
| 2026-05-05 13:24 | 13.60602 | 122.00868 | 23413 ft | 444 kts | 143° |
| 2026-05-05 13:24 | 13.58104 | 122.02750 | 23642 ft | 446 kts | 143° |
| 2026-05-05 13:24 | 13.55602 | 122.04634 | 23866 ft | 447 kts | 143° |
| 2026-05-05 13:24 | 13.53081 | 122.06531 | 24087 ft | 449 kts | 144° |
| 2026-05-05 13:25 | 13.50561 | 122.08428 | 24330 ft | 450 kts | 144° |
| 2026-05-05 13:25 | 13.48040 | 122.10326 | 24556 ft | 451 kts | 144° |
| 2026-05-05 13:25 | 13.45499 | 122.12237 | 24783 ft | 452 kts | 144° |
| 2026-05-05 13:25 | 13.42938 | 122.14162 | 25004 ft | 453 kts | 144° |
| 2026-05-05 13:26 | 13.40411 | 122.16062 | 25210 ft | 454 kts | 144° |
| 2026-05-05 13:26 | 13.37862 | 122.17977 | 25407 ft | 455 kts | 144° |
| 2026-05-05 13:26 | 13.35286 | 122.19912 | 25599 ft | 457 kts | 144° |
| 2026-05-05 13:26 | 13.32697 | 122.21857 | 25797 ft | 458 kts | 144° |
| 2026-05-05 13:27 | 13.30148 | 122.23771 | 25977 ft | 459 kts | 144° |
| 2026-05-05 13:27 | 13.27552 | 122.25720 | 26154 ft | 460 kts | 144° |
| 2026-05-05 13:27 | 13.24975 | 122.27654 | 26325 ft | 462 kts | 144° |
| 2026-05-05 13:27 | 13.22351 | 122.29623 | 26481 ft | 463 kts | 144° |
| 2026-05-05 13:28 | 13.19771 | 122.31559 | 26643 ft | 464 kts | 144° |
| 2026-05-05 13:28 | 13.17162 | 122.33516 | 26797 ft | 465 kts | 144° |
| 2026-05-05 13:28 | 13.14528 | 122.35492 | 26948 ft | 466 kts | 144° |
| 2026-05-05 13:28 | 13.11914 | 122.37451 | 27099 ft | 467 kts | 144° |
| 2026-05-05 13:29 | 13.09298 | 122.39412 | 27244 ft | 468 kts | 144° |
| 2026-05-05 13:29 | 13.06668 | 122.41382 | 27388 ft | 468 kts | 144° |
| 2026-05-05 13:29 | 13.04035 | 122.43353 | 27515 ft | 469 kts | 144° |
| 2026-05-05 13:29 | 13.01394 | 122.45332 | 27643 ft | 470 kts | 144° |
| 2026-05-05 13:30 | 12.98712 | 122.47339 | 27816 ft | 470 kts | 144° |
| 2026-05-05 13:30 | 12.96076 | 122.49313 | 28008 ft | 469 kts | 144° |
| 2026-05-05 13:30 | 12.93469 | 122.51264 | 28203 ft | 469 kts | 144° |
| 2026-05-05 13:30 | 12.90809 | 122.53254 | 28382 ft | 468 kts | 144° |
| 2026-05-05 13:31 | 12.88165 | 122.55231 | 28559 ft | 468 kts | 144° |
| 2026-05-05 13:31 | 12.85560 | 122.57180 | 28771 ft | 467 kts | 144° |
| 2026-05-05 13:31 | 12.82895 | 122.59173 | 28986 ft | 467 kts | 144° |
| 2026-05-05 13:31 | 12.80307 | 122.61107 | 29186 ft | 466 kts | 144° |
| 2026-05-05 13:32 | 12.77679 | 122.63071 | 29388 ft | 466 kts | 144° |
| 2026-05-05 13:32 | 12.75056 | 122.65030 | 29584 ft | 466 kts | 144° |
| 2026-05-05 13:32 | 12.72435 | 122.66988 | 29782 ft | 466 kts | 144° |
| 2026-05-05 13:32 | 12.69821 | 122.68940 | 29992 ft | 466 kts | 144° |
| 2026-05-05 13:33 | 12.67195 | 122.70900 | 30195 ft | 466 kts | 145° |
| 2026-05-05 13:33 | 12.64552 | 122.72872 | 30402 ft | 466 kts | 145° |
| 2026-05-05 13:33 | 12.61925 | 122.74833 | 30615 ft | 465 kts | 145° |
| 2026-05-05 13:33 | 12.59321 | 122.76775 | 30836 ft | 465 kts | 145° |
| 2026-05-05 13:34 | 12.56708 | 122.78725 | 31066 ft | 464 kts | 145° |
| 2026-05-05 13:34 | 12.55844 | 122.79369 | 31140 ft | 464 kts | 145° |
| 2026-05-05 13:34 | 12.51504 | 122.82605 | 31511 ft | 463 kts | 145° |
| 2026-05-05 13:34 | 12.48888 | 122.84556 | 31742 ft | 463 kts | 145° |
| 2026-05-05 13:35 | 12.46284 | 122.86498 | 31982 ft | 462 kts | 145° |
| 2026-05-05 13:35 | 12.43702 | 122.88424 | 32222 ft | 461 kts | 145° |
| 2026-05-05 13:35 | 12.41082 | 122.90378 | 32471 ft | 461 kts | 145° |
| 2026-05-05 13:35 | 12.38500 | 122.92303 | 32721 ft | 460 kts | 145° |
| 2026-05-05 13:36 | 12.35917 | 122.94228 | 32983 ft | 459 kts | 145° |
| 2026-05-05 13:36 | 12.33325 | 122.96156 | 33212 ft | 459 kts | 145° |
| 2026-05-05 13:36 | 12.30756 | 122.98064 | 33397 ft | 460 kts | 145° |
| 2026-05-05 13:36 | 12.28154 | 122.99988 | 33569 ft | 462 kts | 145° |
| 2026-05-05 13:37 | 12.25544 | 123.01920 | 33749 ft | 463 kts | 145° |
| 2026-05-05 13:37 | 12.22930 | 123.03855 | 33944 ft | 463 kts | 145° |
| 2026-05-05 13:37 | 12.20309 | 123.05800 | 34145 ft | 463 kts | 145° |
| 2026-05-05 13:37 | 12.17704 | 123.07731 | 34328 ft | 464 kts | 145° |
| 2026-05-05 13:38 | 12.15100 | 123.09664 | 34495 ft | 464 kts | 145° |
| 2026-05-05 13:38 | 12.12499 | 123.11594 | 34658 ft | 465 kts | 145° |
| 2026-05-05 13:38 | 12.09884 | 123.13535 | 34803 ft | 465 kts | 145° |
| 2026-05-05 13:38 | 12.07244 | 123.15492 | 34821 ft | 469 kts | 145° |
| 2026-05-05 13:39 | 12.02809 | 123.18782 | 34824 ft | 471 kts | 145° |
| 2026-05-05 13:39 | 11.96608 | 123.23380 | 34823 ft | 472 kts | 145° |
| 2026-05-05 13:40 | 11.91283 | 123.27325 | 34823 ft | 472 kts | 145° |
| 2026-05-05 13:40 | 11.85968 | 123.31260 | 34822 ft | 472 kts | 145° |
| 2026-05-05 13:41 | 11.80647 | 123.35198 | 34818 ft | 472 kts | 145° |
| 2026-05-05 13:41 | 11.75312 | 123.39145 | 34818 ft | 472 kts | 145° |
| 2026-05-05 13:42 | 11.69977 | 123.43091 | 34816 ft | 472 kts | 144° |
| 2026-05-05 13:42 | 11.64686 | 123.47003 | 34816 ft | 471 kts | 144° |
| 2026-05-05 13:43 | 11.59357 | 123.50942 | 34814 ft | 471 kts | 145° |
| 2026-05-05 13:43 | 11.54059 | 123.54856 | 34810 ft | 471 kts | 145° |
| 2026-05-05 13:44 | 11.48741 | 123.58781 | 34811 ft | 471 kts | 145° |
| 2026-05-05 13:44 | 11.43459 | 123.62678 | 34810 ft | 471 kts | 144° |
| 2026-05-05 13:45 | 11.38101 | 123.66631 | 34809 ft | 471 kts | 145° |
| 2026-05-05 13:45 | 11.32796 | 123.70547 | 34807 ft | 471 kts | 144° |
| 2026-05-05 13:46 | 11.27502 | 123.74458 | 34807 ft | 470 kts | 144° |
| 2026-05-05 13:46 | 11.22207 | 123.78352 | 34806 ft | 469 kts | 146° |
| 2026-05-05 13:47 | 11.16620 | 123.81778 | 34809 ft | 468 kts | 154° |
| 2026-05-05 13:47 | 11.10617 | 123.84391 | 34823 ft | 468 kts | 161° |
| 2026-05-05 13:48 | 11.04316 | 123.86133 | 34823 ft | 468 kts | 169° |
| 2026-05-05 13:48 | 10.97915 | 123.87277 | 34826 ft | 469 kts | 171° |
| 2026-05-05 13:49 | 10.91453 | 123.88393 | 34826 ft | 469 kts | 171° |
| 2026-05-05 13:49 | 10.85002 | 123.89514 | 34824 ft | 469 kts | 170° |
| 2026-05-05 13:50 | 10.78547 | 123.90645 | 34821 ft | 468 kts | 170° |
| 2026-05-05 13:50 | 10.72110 | 123.91765 | 34819 ft | 468 kts | 171° |
| 2026-05-05 13:51 | 10.65674 | 123.92873 | 34821 ft | 468 kts | 170° |
| 2026-05-05 13:51 | 10.59238 | 123.93985 | 34824 ft | 468 kts | 170° |
| 2026-05-05 13:52 | 10.52794 | 123.95102 | 34827 ft | 468 kts | 170° |
| 2026-05-05 13:52 | 10.46323 | 123.96225 | 34829 ft | 469 kts | 170° |
| 2026-05-05 13:53 | 10.39915 | 123.97337 | 34826 ft | 469 kts | 170° |
| 2026-05-05 13:53 | 10.33449 | 123.98500 | 34821 ft | 469 kts | 168° |
| 2026-05-05 13:54 | 10.27115 | 124.00193 | 34784 ft | 469 kts | 162° |
| 2026-05-05 13:54 | 10.24016 | 124.01203 | 34492 ft | 464 kts | 162° |
| 2026-05-05 13:54 | 10.20987 | 124.02203 | 34205 ft | 461 kts | 162° |
| 2026-05-05 13:55 | 10.17927 | 124.03215 | 33913 ft | 458 kts | 162° |
| 2026-05-05 13:55 | 10.14895 | 124.04216 | 33625 ft | 456 kts | 162° |
| 2026-05-05 13:55 | 10.11848 | 124.05221 | 33239 ft | 457 kts | 162° |
| 2026-05-05 13:55 | 10.08839 | 124.06213 | 32606 ft | 459 kts | 162° |
| 2026-05-05 13:56 | 10.05799 | 124.07214 | 31898 ft | 460 kts | 162° |
| 2026-05-05 13:56 | 10.02740 | 124.08221 | 31093 ft | 461 kts | 162° |
| 2026-05-05 13:56 | 9.99676 | 124.09226 | 30203 ft | 462 kts | 162° |
| 2026-05-05 13:56 | 9.96613 | 124.10228 | 29275 ft | 464 kts | 162° |
| 2026-05-05 13:57 | 9.93525 | 124.11237 | 28309 ft | 467 kts | 162° |
| 2026-05-05 13:57 | 9.90447 | 124.12242 | 27340 ft | 469 kts | 161° |
| 2026-05-05 13:57 | 9.87347 | 124.13256 | 26675 ft | 462 kts | 161° |
| 2026-05-05 13:57 | 9.84298 | 124.14256 | 26113 ft | 455 kts | 161° |
| 2026-05-05 13:58 | 9.81326 | 124.15231 | 25547 ft | 448 kts | 161° |
| 2026-05-05 13:58 | 9.78364 | 124.16204 | 24972 ft | 442 kts | 161° |
| 2026-05-05 13:58 | 9.75457 | 124.17158 | 24400 ft | 437 kts | 160° |
| 2026-05-05 13:58 | 9.72580 | 124.18102 | 23835 ft | 432 kts | 160° |
| 2026-05-05 13:59 | 9.66897 | 124.19968 | 22699 ft | 423 kts | 160° |
| 2026-05-05 13:59 | 9.64129 | 124.20877 | 22150 ft | 419 kts | 160° |
| 2026-05-05 14:00 | 9.58602 | 124.22696 | 21043 ft | 413 kts | 160° |
| 2026-05-05 14:00 | 9.55904 | 124.23581 | 20484 ft | 410 kts | 160° |
| 2026-05-05 14:00 | 9.53172 | 124.24477 | 19902 ft | 408 kts | 160° |
| 2026-05-05 14:00 | 9.50482 | 124.25357 | 19334 ft | 405 kts | 160° |
| 2026-05-05 14:01 | 9.47800 | 124.26232 | 18751 ft | 403 kts | 160° |
| 2026-05-05 14:01 | 9.45126 | 124.27105 | 18167 ft | 401 kts | 160° |
| 2026-05-05 14:01 | 9.42496 | 124.27965 | 17584 ft | 400 kts | 160° |
| 2026-05-05 14:01 | 9.39842 | 124.28832 | 16986 ft | 398 kts | 161° |
| 2026-05-05 14:02 | 9.37193 | 124.29699 | 16370 ft | 397 kts | 161° |
| 2026-05-05 14:02 | 9.35456 | 124.30267 | 15957 ft | 397 kts | 161° |
| 2026-05-05 14:02 | 9.31948 | 124.31415 | 15127 ft | 396 kts | 161° |
| 2026-05-05 14:02 | 9.29313 | 124.32276 | 14507 ft | 394 kts | 161° |
| 2026-05-05 14:03 | 9.26713 | 124.33127 | 13904 ft | 393 kts | 161° |
| 2026-05-05 14:03 | 9.24124 | 124.33974 | 13296 ft | 391 kts | 161° |
| 2026-05-05 14:03 | 9.21556 | 124.34813 | 12694 ft | 388 kts | 161° |
| 2026-05-05 14:03 | 9.18965 | 124.35659 | 12095 ft | 385 kts | 161° |
| 2026-05-05 14:04 | 9.16440 | 124.36485 | 11517 ft | 381 kts | 161° |
| 2026-05-05 14:04 | 9.13941 | 124.37302 | 11103 ft | 371 kts | 161° |
| 2026-05-05 14:04 | 9.11527 | 124.38093 | 10864 ft | 357 kts | 161° |
| 2026-05-05 14:04 | 9.09205 | 124.38851 | 10653 ft | 343 kts | 161° |
| 2026-05-05 14:05 | 9.06985 | 124.39576 | 10456 ft | 330 kts | 160° |
| 2026-05-05 14:05 | 9.04828 | 124.40281 | 10282 ft | 317 kts | 161° |
| 2026-05-05 14:05 | 9.02812 | 124.41071 | 10107 ft | 304 kts | 152° |
| 2026-05-05 14:05 | 9.01006 | 124.42149 | 9945 ft | 293 kts | 143° |
| 2026-05-05 14:06 | 8.99366 | 124.43349 | 9574 ft | 291 kts | 141° |
| 2026-05-05 14:06 | 8.97743 | 124.44583 | 9201 ft | 290 kts | 141° |
| 2026-05-05 14:06 | 8.96140 | 124.45804 | 8843 ft | 288 kts | 141° |
| 2026-05-05 14:06 | 8.94547 | 124.47014 | 8495 ft | 285 kts | 141° |
| 2026-05-05 14:07 | 8.92951 | 124.48220 | 8138 ft | 283 kts | 141° |
| 2026-05-05 14:07 | 8.91390 | 124.49397 | 7795 ft | 281 kts | 141° |
| 2026-05-05 14:07 | 8.89814 | 124.50582 | 7456 ft | 279 kts | 141° |
| 2026-05-05 14:07 | 8.88255 | 124.51755 | 7100 ft | 276 kts | 141° |
| 2026-05-05 14:08 | 8.86720 | 124.52910 | 6768 ft | 274 kts | 141° |
| 2026-05-05 14:08 | 8.85204 | 124.54050 | 6425 ft | 272 kts | 141° |
| 2026-05-05 14:08 | 8.83691 | 124.55187 | 6082 ft | 270 kts | 141° |
| 2026-05-05 14:08 | 8.82171 | 124.56331 | 5744 ft | 269 kts | 141° |
| 2026-05-05 14:09 | 8.80684 | 124.57449 | 5399 ft | 267 kts | 141° |
| 2026-05-05 14:09 | 8.79178 | 124.58580 | 5055 ft | 266 kts | 141° |
| 2026-05-05 14:09 | 8.77702 | 124.59688 | 4717 ft | 265 kts | 141° |
| 2026-05-05 14:09 | 8.76233 | 124.60791 | 4383 ft | 263 kts | 141° |
| 2026-05-05 14:10 | 8.74765 | 124.61891 | 4046 ft | 262 kts | 142° |
| 2026-05-05 14:10 | 8.73156 | 124.62772 | 3694 ft | 264 kts | 160° |
| 2026-05-05 14:10 | 8.71339 | 124.63098 | 3487 ft | 258 kts | 173° |
| 2026-05-05 14:10 | 8.69603 | 124.63226 | 3458 ft | 244 kts | 174° |
| 2026-05-05 14:11 | 8.67943 | 124.63336 | 3419 ft | 231 kts | 174° |
| 2026-05-05 14:11 | 8.66365 | 124.63446 | 3374 ft | 217 kts | 173° |
| 2026-05-05 14:11 | 8.64902 | 124.63553 | 3405 ft | 198 kts | 173° |
| 2026-05-05 14:11 | 8.63567 | 124.63563 | 3287 ft | 189 kts | 191° |
| 2026-05-05 14:12 | 8.62552 | 124.62817 | 3099 ft | 181 kts | 243° |
| 2026-05-05 14:12 | 8.62307 | 124.61643 | 2996 ft | 165 kts | 269° |
| 2026-05-05 14:12 | 8.62271 | 124.60499 | 2904 ft | 162 kts | 270° |
| 2026-05-05 14:12 | 8.62232 | 124.59362 | 2671 ft | 162 kts | 269° |
| 2026-05-05 14:13 | 8.62173 | 124.58237 | 2452 ft | 160 kts | 269° |
| 2026-05-05 14:13 | 8.62101 | 124.57123 | 2267 ft | 157 kts | 268° |
| 2026-05-05 14:13 | 8.62023 | 124.56055 | 2033 ft | 149 kts | 268° |
| 2026-05-05 14:13 | 8.61946 | 124.55021 | 1840 ft | 147 kts | 268° |
| 2026-05-05 14:14 | 8.61868 | 124.53989 | 1651 ft | 147 kts | 269° |
| 2026-05-05 14:14 | 8.61790 | 124.52962 | 1457 ft | 146 kts | 268° |
| 2026-05-05 14:14 | 8.61712 | 124.51932 | 1264 ft | 146 kts | 268° |
| 2026-05-05 14:14 | 8.61633 | 124.50908 | 1073 ft | 145 kts | 268° |
| 2026-05-05 14:15 | 8.61556 | 124.49900 | 879 ft | 145 kts | 268° |
| 2026-05-05 14:15 | 8.61471 | 124.48883 | 672 ft | 144 kts | 268° |
| 2026-05-05 14:15 | 8.61388 | 124.47877 | 481 ft | 143 kts | 268° |
| 2026-05-05 14:15 | 8.61313 | 124.46884 | 283 ft | 141 kts | 268° |
| 2026-05-05 14:16 | 8.61242 | 124.45923 | 196 ft | 125 kts | 266° |
| 2026-05-05 14:16 | 8.61197 | 124.45345 | 195 ft | 44 kts | 264° |
| 2026-05-05 14:16 | 8.61173 | 124.45055 | 195 ft | 39 kts | 267° |
| 2026-05-05 14:16 | 8.61155 | 124.44836 | 195 ft | 17 kts | 264° |
| 2026-05-05 14:17 | 8.61124 | 124.44756 | 195 ft | 7 kts | 245° |
| 2026-05-05 14:17 | 8.61136 | 124.44741 | 195 ft | 4 kts | 16° |
| 2026-05-05 14:17 | 8.61151 | 124.44772 | 195 ft | 6 kts | 87° |
| 2026-05-05 14:17 | 8.61155 | 124.44820 | 195 ft | 7 kts | 85° |
| 2026-05-05 14:18 | 8.61159 | 124.44875 | 195 ft | 8 kts | 85° |
| 2026-05-05 14:18 | 8.61165 | 124.44946 | 195 ft | 11 kts | 85° |
| 2026-05-05 14:18 | 8.61172 | 124.45035 | 195 ft | 14 kts | 85° |
| 2026-05-05 14:18 | 8.61181 | 124.45154 | 195 ft | 19 kts | 85° |
| 2026-05-05 14:19 | 8.61192 | 124.45300 | 195 ft | 21 kts | 85° |
| 2026-05-05 14:19 | 8.61205 | 124.45451 | 195 ft | 21 kts | 85° |
| 2026-05-05 14:19 | 8.61211 | 124.45559 | 195 ft | 10 kts | 101° |
| 2026-05-05 14:19 | 8.61155 | 124.45602 | 195 ft | 11 kts | 175° |
| 2026-05-05 14:20 | 8.61071 | 124.45609 | 195 ft | 12 kts | 175° |
| 2026-05-05 14:20 | 8.60999 | 124.45614 | 195 ft | 6 kts | 170° |
| 2026-05-05 14:20 | 8.60982 | 124.45644 | 195 ft | 6 kts | 85° |
| 2026-05-05 14:20 | 8.60986 | 124.45695 | 195 ft | 7 kts | 85° |
| 2026-05-05 14:21 | 8.60989 | 124.45745 | 195 ft | 6 kts | 87° |
| 2026-05-05 14:21 | 8.60970 | 124.45773 | 195 ft | 5 kts | 165° |
| 2026-05-05 14:21 | 8.60929 | 124.45777 | 195 ft | 5 kts | 175° |
| 2026-05-05 14:21 | 8.60910 | 124.45779 | 195 ft | 1 kts | 175° |